Detall de PIREP

Printer-friendly versionPDF version

[2012/10/05 06:59:00]
Flight IATA:CT3403
Pilot Number:012
Company ICAO:CAT
Aircraft Type:A343/E
PAX:173
Departing Airport: ENGM
Destination Airport: LEBL
Alternate Airport:LEPA
Online: VATSIM
Route:TOR/M082F380 P601 VES/M082F390 N873 TUSKA UN873 JUIST UP174 WOODY UN872 KOVIN UY317 RESMI UN857 DIRMO UN855 PPG UP84 ALBER
Flight Level:F390
No Slew and time accel
No pause
Crash detect
Detect pilot in Cockpit between each 30 and 45 minutes
06:59 Zero fuel Weight: 341916 Lbs, Fuel Weight: 68379 Lbs
06:59 VATSIM:ENGM 050618Z VRB01KT 0300 R19R/0275N R01R/0375N FG VV001 M01/M01 Q1000
06:59 VATSIM:LEBL 050630Z 32008KT 260V010 8000 FEW020 18/17 Q1018 NOSIG
06:59 VOICE CATALONIAN
07:07 Parking Brakes off
07:11 Take-off
07:11 Take off Weight: 408867 Lbs
07:11 Wind: 001º @ 001 Knots Heading: 195º
07:11 POS N60º 10´ 48´´ E011º 06´ 37´´
07:11 Gear Up: 187 Knots
07:11 Flaps:2 at 187 Knots
07:12 Flaps:1 at 207 Knots
07:12 Flaps:0 at 216 Knots
07:26 Wind:247º@018 Knots Heading: 198º Ground Speed: 442 Knots Altitude 30229 ft
07:34 TOC
07:34 Fuel Weight: 58279 Lb
07:41 Wind:267º@053 Knots Heading: 202º Ground Speed: 460 Knots Altitude 38710 ft
07:56 Wind:271º@080 Knots Heading: 211º Ground Speed: 442 Knots Altitude 38720 ft
08:11 Wind:275º@096 Knots Heading: 212º Ground Speed: 436 Knots Altitude 38704 ft
08:26 Wind:270º@096 Knots Heading: 227º Ground Speed: 404 Knots Altitude 38618 ft
08:41 Wind:270º@096 Knots Heading: 212º Ground Speed: 425 Knots Altitude 38802 ft
08:56 Wind:270º@077 Knots Heading: 221º Ground Speed: 422 Knots Altitude 38973 ft
09:11 Wind:269º@050 Knots Heading: 183º Ground Speed: 466 Knots Altitude 39097 ft
09:26 Wind:260º@020 Knots Heading: 181º Ground Speed: 463 Knots Altitude 39189 ft
09:41 Wind:203º@007 Knots Heading: 179º Ground Speed: 460 Knots Altitude 39183 ft
09:42 TOD
09:42 Fuel Weight: 32928 Lb
09:56 Wind:243º@023 Knots Heading: 193º Ground Speed: 305 Knots Altitude 12257 ft
10:04 Flaps:1 at 216 Knots
10:04 Flaps:3 at 187 Knots
10:05 Flaps:4 at 141 Knots
10:05 Gear Down: 137 Knots
10:05 Flaps:5 at 139 Knots
10:09 TouchDown:Rate -365 ft/min Speed: 119 Knots
10:10 VATSIM:LEBL 051000Z 13004KT 9000 FEW018 24/17 Q1019 NOSIG
10:10 Land
10:10 Wind:309º@005 Knots
10:10 Heading: 251º
10:10 Flight Duration: 02:59
10:10 Landing Weight: 371346 Lbs
10:10 POS N41º 18´ 03´´ E002º 05´ 24´´
10:12 Parking brakes on
10:12 Block to Block Duration: 03:05
10:12 Final Fuel: 29063 Lbls
10:12 Spent Fuel: 39316 Lbls
10:12 Flight Length: 1226 NM
10:12 TOD Land Length: 134 NM

Exportar CSV

Powered by Drupal - Modified by Danger4k